createdAt,value
2023-01-12T00:02:06.591Z,1.92
2023-01-12T00:04:35.788Z,2.00
2023-01-12T00:07:04.584Z,2.20
2023-01-12T00:09:32.759Z,1.73
2023-01-12T00:12:02.153Z,2.03
2023-01-12T00:14:30.320Z,2.03
2023-01-12T00:16:59.983Z,1.67
2023-01-12T00:19:28.169Z,1.63
2023-01-12T00:22:02.352Z,1.55
2023-01-12T00:24:31.881Z,2.50
2023-01-12T00:27:01.438Z,1.75
2023-01-12T00:29:30.073Z,2.45
2023-01-12T00:32:00.837Z,1.58
2023-01-12T00:34:30.067Z,2.25
2023-01-12T00:36:58.966Z,1.92
2023-01-12T00:39:27.217Z,1.98
2023-01-12T00:42:12.545Z,1.70
2023-01-12T00:44:58.207Z,1.67
2023-01-12T00:47:27.802Z,1.77
2023-01-12T00:49:55.999Z,1.60
2023-01-12T00:52:30.768Z,1.83
2023-01-12T00:55:00.014Z,1.88
2023-01-12T00:57:28.810Z,1.60
2023-01-12T00:59:59.361Z,2.03
2023-01-12T01:02:29.805Z,1.77
2023-01-12T01:04:58.148Z,1.95
2023-01-12T01:07:26.709Z,2.25
2023-01-12T01:09:54.861Z,1.90
2023-01-12T01:12:23.133Z,2.13
2023-01-12T01:14:53.484Z,1.65
2023-01-12T01:17:21.692Z,1.70
2023-01-12T01:19:51.233Z,1.75
2023-01-12T01:22:19.384Z,1.20
2023-01-12T01:24:48.949Z,1.55
2023-01-12T01:27:17.185Z,1.98
2023-01-12T01:29:45.339Z,2.03
2023-01-12T01:32:13.486Z,1.73
2023-01-12T01:34:42.245Z,1.95
2023-01-12T01:37:12.188Z,1.60
2023-01-12T01:39:40.359Z,1.98
2023-01-12T01:42:27.791Z,1.90
2023-01-12T01:44:58.438Z,1.77
2023-01-12T01:47:34.616Z,1.75
2023-01-12T01:50:07.150Z,1.42
2023-01-12T01:52:41.001Z,1.67
2023-01-12T01:55:15.151Z,1.90
2023-01-12T01:57:47.393Z,2.17
2023-01-12T02:00:16.727Z,1.88
2023-01-12T02:02:47.047Z,2.70
2023-01-12T02:05:17.285Z,2.05
2023-01-12T02:07:47.010Z,1.75
2023-01-12T02:10:15.260Z,1.83
2023-01-12T02:13:00.612Z,1.38
2023-01-12T02:15:49.818Z,1.85
2023-01-12T02:18:25.028Z,1.65
2023-01-12T02:21:13.997Z,1.52
2023-01-12T02:24:25.680Z,2.10
2023-01-12T02:27:34.200Z,1.90
2023-01-12T02:30:43.679Z,1.70
2023-01-12T02:33:23.609Z,1.60
2023-01-12T02:35:59.068Z,1.80
2023-01-12T02:38:36.603Z,1.55
2023-01-12T02:41:13.816Z,1.70
2023-01-12T02:43:42.583Z,2.22
2023-01-12T02:46:16.449Z,2.03
2023-01-12T02:48:52.908Z,1.77
2023-01-12T02:51:28.350Z,1.42
2023-01-12T02:54:01.416Z,1.77
2023-01-12T02:56:33.266Z,1.90
2023-01-12T02:59:06.925Z,1.80
2023-01-12T03:01:35.307Z,2.35
2023-01-12T03:04:08.981Z,1.70
2023-01-12T03:06:43.762Z,1.70
2023-01-12T03:09:12.628Z,2.15
2023-01-12T03:11:44.147Z,1.83
2023-01-12T03:14:15.104Z,1.33
2023-01-12T03:16:43.262Z,1.73
2023-01-12T03:19:17.029Z,1.65
2023-01-12T03:21:52.514Z,2.17
2023-01-12T03:24:26.535Z,1.55
2023-01-12T03:27:00.308Z,1.60
2023-01-12T03:29:34.409Z,1.50
2023-01-12T03:32:02.662Z,1.67
2023-01-12T03:34:34.473Z,1.90
2023-01-12T03:37:12.693Z,2.42
2023-01-12T03:39:51.449Z,1.67
2023-01-12T03:42:25.747Z,1.08
2023-01-12T03:45:04.301Z,1.88
2023-01-12T03:47:34.717Z,1.50
2023-01-12T03:50:07.374Z,1.90
2023-01-12T03:52:38.386Z,1.40
2023-01-12T03:55:09.700Z,2.63
2023-01-12T03:57:39.662Z,1.73
2023-01-12T04:00:11.094Z,1.63
2023-01-12T04:02:39.419Z,1.48
2023-01-12T04:05:10.732Z,1.42
2023-01-12T04:07:38.898Z,1.58
2023-01-12T04:10:08.305Z,1.58
2023-01-12T04:12:36.480Z,1.33
2023-01-12T04:15:06.203Z,1.83
2023-01-12T04:17:34.382Z,1.75
2023-01-12T04:20:02.803Z,1.05
2023-01-12T04:22:43.125Z,1.50
2023-01-12T04:25:12.134Z,1.80
2023-01-12T04:27:43.698Z,1.20
2023-01-12T04:30:13.212Z,1.52
2023-01-12T04:32:42.232Z,1.60
2023-01-12T04:35:11.934Z,1.50
2023-01-12T04:37:41.965Z,1.25
2023-01-12T04:40:12.926Z,1.63
2023-01-12T04:43:08.233Z,1.15
2023-01-12T04:45:39.851Z,1.52
2023-01-12T04:48:10.354Z,12.65
2023-01-12T04:50:39.371Z,3.55
2023-01-12T04:53:10.530Z,21.50
2023-01-12T04:55:39.908Z,15.68
2023-01-12T04:58:08.308Z,12.77
2023-01-12T05:00:37.471Z,6.07
2023-01-12T05:03:05.756Z,40.15
2023-01-12T05:05:34.795Z,16.15
2023-01-12T05:08:21.863Z,6.93
2023-01-12T05:10:52.665Z,2.30
2023-01-12T05:13:21.168Z,2.45
2023-01-12T05:15:49.353Z,2.05
2023-01-12T05:18:17.521Z,1.40
2023-01-12T05:20:45.782Z,1.58
2023-01-12T05:23:13.955Z,1.40
2023-01-12T05:25:42.119Z,1.92
2023-01-12T05:28:11.648Z,1.45
2023-01-12T05:30:39.839Z,1.25
2023-01-12T05:33:07.988Z,1.65
2023-01-12T05:35:38.968Z,1.50
2023-01-12T05:38:07.116Z,0.90
2023-01-12T05:40:35.320Z,1.55
2023-01-12T05:43:20.905Z,2.20
2023-01-12T05:45:50.452Z,1.77
2023-01-12T05:48:18.617Z,1.48
2023-01-12T05:50:46.753Z,4.28
2023-01-12T05:53:14.965Z,5.40
2023-01-12T05:55:43.126Z,13.95
2023-01-12T05:58:11.292Z,22.17
2023-01-12T06:00:39.475Z,69.97
2023-01-12T06:03:09.217Z,26.27
2023-01-12T06:05:37.526Z,42.10
2023-01-12T06:08:05.996Z,25.17
2023-01-12T06:10:36.363Z,17.15
2023-01-12T06:13:22.036Z,5.00
2023-01-12T06:15:54.694Z,2.58
2023-01-12T06:18:24.298Z,1.88
2023-01-12T06:20:52.449Z,1.20
2023-01-12T06:23:20.583Z,1.25
2023-01-12T06:25:48.747Z,1.17
2023-01-12T06:28:17.573Z,1.75
2023-01-12T06:30:45.779Z,1.05
2023-01-12T06:33:14.492Z,1.30
2023-01-12T06:35:49.893Z,0.90
2023-01-12T06:38:19.059Z,1.80
2023-01-12T06:40:47.387Z,1.30
2023-01-12T06:43:15.565Z,1.10
2023-01-12T06:45:44.085Z,1.67
2023-01-12T06:48:12.580Z,1.75
2023-01-12T06:50:40.744Z,1.20
2023-01-12T06:53:11.287Z,1.42
2023-01-12T06:55:39.540Z,0.98
2023-01-12T06:58:07.792Z,1.65
2023-01-12T07:00:35.958Z,1.20
2023-01-12T07:03:04.144Z,1.15
2023-01-12T07:05:32.312Z,2.15
2023-01-12T07:08:06.115Z,1.20
2023-01-12T07:10:37.287Z,1.25
2023-01-12T07:13:19.370Z,1.70
2023-01-12T07:18:15.497Z,1.08
2023-01-12T07:20:43.664Z,1.50
2023-01-12T07:23:11.793Z,1.55
2023-01-12T07:25:41.406Z,1.20
2023-01-12T07:28:10.470Z,1.20
2023-01-12T07:30:38.837Z,3.67
2023-01-12T07:33:08.511Z,2.40
2023-01-12T07:35:36.707Z,1.95
2023-01-12T07:38:05.316Z,1.70
2023-01-12T07:40:33.534Z,1.45
2023-01-12T07:43:04.664Z,1.42
2023-01-12T07:45:32.940Z,2.23
2023-01-12T07:48:01.516Z,2.03
2023-01-12T07:50:33.001Z,2.03
2023-01-12T07:53:02.403Z,1.70
2023-01-12T07:55:30.908Z,2.38
2023-01-12T07:58:00.479Z,1.95
2023-01-12T08:00:30.602Z,1.63
2023-01-12T08:03:07.048Z,2.35
2023-01-12T08:05:36.282Z,1.60
2023-01-12T08:08:05.066Z,1.17
2023-01-12T08:10:33.754Z,1.45
2023-01-12T08:13:01.993Z,1.40
2023-01-12T08:15:36.784Z,1.25
2023-01-12T08:18:09.213Z,1.48
2023-01-12T08:20:38.585Z,1.45
2023-01-12T08:23:11.878Z,1.30
2023-01-12T08:25:44.628Z,1.40
2023-01-12T08:28:18.144Z,15.63
2023-01-12T08:30:50.887Z,3.90
2023-01-12T08:33:19.155Z,2.08
2023-01-12T08:35:48.178Z,2.05
2023-01-12T08:38:16.675Z,1.92
2023-01-12T08:41:02.011Z,1.73
2023-01-12T08:43:47.580Z,2.05
2023-01-12T08:46:24.537Z,1.90
2023-01-12T08:48:53.961Z,1.42
2023-01-12T08:51:22.259Z,2.00
2023-01-12T08:53:50.465Z,1.60
2023-01-12T08:56:18.666Z,1.42
2023-01-12T08:58:46.933Z,8.43
2023-01-12T09:01:17.472Z,6.32
2023-01-12T09:03:45.777Z,2.13
2023-01-12T09:06:15.075Z,2.20
2023-01-12T09:08:43.361Z,1.80
2023-01-12T09:11:14.738Z,2.05
2023-01-12T09:13:43.097Z,2.25
2023-01-12T09:16:13.848Z,1.58
2023-01-12T09:18:43.969Z,3.08
2023-01-12T09:21:13.819Z,2.20
2023-01-12T09:23:42.194Z,5.78
2023-01-12T09:26:12.686Z,3.42
2023-01-12T09:28:45.127Z,2.13
2023-01-12T09:31:16.105Z,1.60
2023-01-12T09:33:49.034Z,1.70
2023-01-12T09:36:19.379Z,1.67
2023-01-12T09:38:48.088Z,1.40
2023-01-12T09:41:39.436Z,1.35
2023-01-12T09:44:35.261Z,1.37
2023-01-12T09:47:08.224Z,1.25
2023-01-12T09:49:42.025Z,1.08
2023-01-12T09:52:17.297Z,1.58
2023-01-12T09:54:48.990Z,0.98
2023-01-12T09:57:42.468Z,1.85
2023-01-12T10:00:13.925Z,1.08
2023-01-12T10:02:46.061Z,1.30
2023-01-12T10:05:38.868Z,0.80
2023-01-12T10:08:15.823Z,0.85
2023-01-12T10:10:56.524Z,1.10
2023-01-12T10:13:29.482Z,1.10
2023-01-12T10:16:04.015Z,0.80
2023-01-12T10:18:38.871Z,0.60
2023-01-12T10:21:12.606Z,0.70
2023-01-12T10:23:40.773Z,0.93
2023-01-12T10:26:18.574Z,0.70
2023-01-12T10:29:03.756Z,0.70
2023-01-12T10:31:31.921Z,1.30
2023-01-12T10:34:06.898Z,0.80
2023-01-12T10:36:38.084Z,0.55
2023-01-12T10:39:24.170Z,0.77
2023-01-12T10:42:36.907Z,1.20
2023-01-12T10:45:17.567Z,0.98
2023-01-12T10:47:46.929Z,0.70
2023-01-12T10:50:24.539Z,0.60
2023-01-12T10:53:00.463Z,0.93
2023-01-12T10:55:33.080Z,0.70
2023-01-12T10:58:01.697Z,1.85
2023-01-12T11:00:34.249Z,1.20
2023-01-12T11:03:25.505Z,1.80
2023-01-12T11:05:53.829Z,1.45
2023-01-12T11:08:27.253Z,1.65
2023-01-12T11:10:55.677Z,3.67
2023-01-12T11:13:27.354Z,2.60
2023-01-12T11:16:03.591Z,1.80
2023-01-12T11:18:39.724Z,1.60
2023-01-12T11:21:10.316Z,1.30
2023-01-12T11:23:43.814Z,0.77
2023-01-12T11:26:19.345Z,0.80
2023-01-12T11:28:50.998Z,0.98
2023-01-12T11:31:23.725Z,0.45
2023-01-12T11:33:56.358Z,3.60
2023-01-12T11:36:28.456Z,4.82
2023-01-12T11:39:03.352Z,3.70
2023-01-12T11:41:37.100Z,3.13
2023-01-12T11:44:15.355Z,2.78
2023-01-12T11:46:46.791Z,1.50
2023-01-12T11:49:19.610Z,4.10
2023-01-12T11:51:50.410Z,6.00
2023-01-12T11:54:20.749Z,5.80
2023-01-12T11:57:18.388Z,3.25
2023-01-12T12:00:03.314Z,4.40
2023-01-12T12:02:37.110Z,2.25
2023-01-12T12:05:21.418Z,0.90
2023-01-12T12:08:03.532Z,0.82
2023-01-12T12:13:34.280Z,0.82
2023-01-12T12:16:19.328Z,0.68
2023-01-12T12:19:10.370Z,0.50
2023-01-12T12:21:48.900Z,0.43
2023-01-12T12:24:44.350Z,0.50
2023-01-12T12:27:25.457Z,0.55
2023-01-12T12:30:14.180Z,0.50
2023-01-12T12:32:51.240Z,0.60
2023-01-12T12:35:37.406Z,0.60
2023-01-12T12:38:21.012Z,0.70
2023-01-12T12:41:19.810Z,0.70
2023-01-12T12:44:12.838Z,3.88
2023-01-12T12:46:53.326Z,6.65
2023-01-12T12:49:25.349Z,2.25
2023-01-12T12:51:56.067Z,1.70
2023-01-12T12:54:24.957Z,2.70
2023-01-12T12:56:53.300Z,1.20
2023-01-12T12:59:57.023Z,1.50
2023-01-12T13:02:35.518Z,1.00
2023-01-12T13:05:08.673Z,0.93
2023-01-12T13:07:45.794Z,0.82
2023-01-12T13:10:31.513Z,1.20
2023-01-12T13:13:14.212Z,1.30
2023-01-12T13:15:43.822Z,1.65
2023-01-12T13:18:42.205Z,1.25
2023-01-12T13:21:29.684Z,1.20
2023-01-12T13:24:25.883Z,1.23
2023-01-12T13:26:55.600Z,1.40
2023-01-12T13:29:41.444Z,1.25
2023-01-12T13:32:46.295Z,1.38
2023-01-12T13:35:54.643Z,1.02
2023-01-12T13:38:39.302Z,1.00
2023-01-12T13:41:38.922Z,1.17
2023-01-12T13:44:08.324Z,1.10
2023-01-12T13:46:41.853Z,1.20
2023-01-12T13:49:30.199Z,0.93
2023-01-12T13:52:03.928Z,0.90
2023-01-12T13:54:34.687Z,1.35
2023-01-12T13:57:05.531Z,0.93
2023-01-12T13:59:34.981Z,0.60
2023-01-12T14:02:04.475Z,0.57
2023-01-12T14:05:00.726Z,0.90
2023-01-12T14:07:44.526Z,0.60
2023-01-12T14:10:27.487Z,0.50
2023-01-12T14:13:25.242Z,0.90
2023-01-12T14:16:19.320Z,0.80
2023-01-12T14:18:50.404Z,0.98
2023-01-12T14:21:24.993Z,0.65
2023-01-12T14:23:53.562Z,0.50
2023-01-12T14:26:27.195Z,0.50
2023-01-12T14:28:55.493Z,0.70
2023-01-12T14:31:32.007Z,0.55
2023-01-12T14:34:01.865Z,0.60
2023-01-12T14:36:32.428Z,0.70
2023-01-12T14:39:01.324Z,1.30
2023-01-12T14:41:48.742Z,1.13
2023-01-12T14:44:37.596Z,1.70
2023-01-12T14:47:06.013Z,2.72
2023-01-12T14:49:36.040Z,1.90
2023-01-12T14:52:22.258Z,2.10
2023-01-12T14:54:52.213Z,1.00
2023-01-12T14:57:25.867Z,1.25
2023-01-12T14:59:55.056Z,1.20
2023-01-12T15:02:32.661Z,1.52
2023-01-12T15:05:04.371Z,1.63
2023-01-12T15:07:35.935Z,0.80
2023-01-12T15:10:21.255Z,0.80
2023-01-12T15:12:54.198Z,0.68
2023-01-12T15:15:24.157Z,0.60
2023-01-12T15:18:14.043Z,0.50
2023-01-12T15:21:01.381Z,0.65
2023-01-12T15:23:49.891Z,0.73
2023-01-12T15:26:18.228Z,0.85
2023-01-12T15:28:48.238Z,0.68
2023-01-12T15:31:21.565Z,0.95
2023-01-12T15:33:49.831Z,0.60
2023-01-12T15:36:18.068Z,0.63
2023-01-12T15:38:46.224Z,0.68
2023-01-12T15:41:18.515Z,1.00
2023-01-12T15:43:48.063Z,1.17
2023-01-12T15:46:20.244Z,0.75
2023-01-12T15:48:48.405Z,0.90
2023-01-12T15:51:17.020Z,0.60
2023-01-12T15:53:45.591Z,0.68
2023-01-12T15:56:16.292Z,1.10
2023-01-12T15:58:44.523Z,0.90
2023-01-12T16:01:17.807Z,1.02
2023-01-12T16:04:07.246Z,0.80
2023-01-12T16:06:35.073Z,3.30
2023-01-12T16:09:03.231Z,4.32
2023-01-12T16:11:31.432Z,1.50
2023-01-12T16:13:59.614Z,1.10
2023-01-12T16:16:29.500Z,0.98
2023-01-12T16:18:59.910Z,2.10
2023-01-12T16:21:29.338Z,2.40
2023-01-12T16:23:57.978Z,11.45
2023-01-12T16:26:27.113Z,3.65
2023-01-12T16:28:55.519Z,2.80
2023-01-12T16:31:23.744Z,4.00
2023-01-12T16:33:53.397Z,1.88
2023-01-12T16:36:21.667Z,2.15
2023-01-12T16:38:52.016Z,1.90
2023-01-12T16:41:22.375Z,1.73
2023-01-12T16:43:51.188Z,1.23
2023-01-12T16:46:19.375Z,6.90
2023-01-12T16:48:47.524Z,11.25
2023-01-12T16:51:18.249Z,3.72
2023-01-12T16:53:48.367Z,2.47
2023-01-12T16:56:18.178Z,2.08
2023-01-12T16:58:48.446Z,2.00
2023-01-12T17:01:19.231Z,3.78
2023-01-12T17:03:47.810Z,2.33
2023-01-12T17:06:20.193Z,3.03
2023-01-12T17:08:48.732Z,1.65
2023-01-12T17:11:19.838Z,1.98
2023-01-12T17:13:52.312Z,1.70
2023-01-12T17:16:21.494Z,1.25
2023-01-12T17:18:50.955Z,1.05
2023-01-12T17:21:21.002Z,0.50
2023-01-12T17:23:49.314Z,0.68
2023-01-12T17:26:19.197Z,0.90
2023-01-12T17:28:48.218Z,0.50
2023-01-12T17:31:18.379Z,0.57
2023-01-12T17:33:46.794Z,0.50
2023-01-12T17:36:15.357Z,0.35
2023-01-12T17:38:44.916Z,0.50
2023-01-12T17:41:36.051Z,0.80
2023-01-12T17:44:05.138Z,0.77
2023-01-12T17:46:34.194Z,0.50
2023-01-12T17:49:04.881Z,0.70
2023-01-12T17:51:33.566Z,2.47
2023-01-12T17:54:04.702Z,3.15
2023-01-12T17:56:34.314Z,2.78
2023-01-12T17:59:03.525Z,2.30
2023-01-12T18:01:34.023Z,1.40
2023-01-12T18:04:02.696Z,1.40
2023-01-12T18:06:30.935Z,1.80
2023-01-12T18:09:00.602Z,1.23
2023-01-12T18:11:31.991Z,1.42
2023-01-12T18:14:00.795Z,1.20
2023-01-12T18:16:29.951Z,1.02
2023-01-12T18:18:58.458Z,1.48
2023-01-12T18:21:28.247Z,2.10
2023-01-12T18:23:57.655Z,1.95
2023-01-12T18:26:27.726Z,3.45
2023-01-12T18:28:59.051Z,7.85
2023-01-12T18:31:31.443Z,4.40
2023-01-12T18:34:04.287Z,3.08
2023-01-12T18:36:34.442Z,2.40
2023-01-12T18:39:02.825Z,1.60
2023-01-12T18:41:48.447Z,5.18
2023-01-12T18:44:19.031Z,25.98
2023-01-12T18:47:05.057Z,9.93
2023-01-12T18:49:34.451Z,4.65
2023-01-12T18:52:21.122Z,5.47
2023-01-12T18:54:51.789Z,1.30
2023-01-12T18:57:21.811Z,0.90
2023-01-12T18:59:53.026Z,1.02
2023-01-12T19:02:22.038Z,0.90
2023-01-12T19:05:15.769Z,0.90
2023-01-12T19:08:03.527Z,0.82
2023-01-12T19:10:33.659Z,1.10
2023-01-12T19:13:19.100Z,1.00
2023-01-12T19:16:17.317Z,0.82
2023-01-12T19:18:45.495Z,1.10
2023-01-12T19:21:31.157Z,1.10
2023-01-12T19:24:16.800Z,0.90
2023-01-12T19:27:02.157Z,1.30
2023-01-12T19:29:30.355Z,1.20
2023-01-12T19:31:59.889Z,0.85
2023-01-12T19:34:28.057Z,0.68
2023-01-12T19:36:56.247Z,1.20
2023-01-12T19:39:38.411Z,0.77
2023-01-12T19:42:24.634Z,0.60
2023-01-12T19:44:52.789Z,0.80
2023-01-12T19:47:22.335Z,0.50
2023-01-12T19:49:50.488Z,0.82
2023-01-12T19:52:18.765Z,1.00
2023-01-12T19:54:47.666Z,0.90
2023-01-12T19:57:15.817Z,1.15
2023-01-12T19:59:45.168Z,0.73
2023-01-12T20:02:14.562Z,0.70
2023-01-12T20:04:44.111Z,0.70
2023-01-12T20:07:12.422Z,0.90
2023-01-12T20:09:40.688Z,0.50
2023-01-12T20:12:08.970Z,0.80
2023-01-12T20:14:37.152Z,0.70
2023-01-12T20:17:05.923Z,0.73
2023-01-12T20:19:34.503Z,0.93
2023-01-12T20:22:04.833Z,0.60
2023-01-12T20:24:33.046Z,0.60
2023-01-12T20:27:01.221Z,1.10
2023-01-12T20:29:29.402Z,0.93
2023-01-12T20:31:57.785Z,0.52
2023-01-12T20:34:25.961Z,1.00
2023-01-12T20:36:54.343Z,0.60
2023-01-12T20:39:24.452Z,0.52
2023-01-12T20:41:52.618Z,0.70
2023-01-12T20:44:20.865Z,0.90
2023-01-12T20:46:49.130Z,2.95
2023-01-12T20:49:17.315Z,3.60
2023-01-12T20:51:45.860Z,1.88
2023-01-12T20:54:14.015Z,1.70
2023-01-12T20:56:43.843Z,1.90
2023-01-12T20:59:12.251Z,1.60
2023-01-12T21:01:40.548Z,1.30
2023-01-12T21:04:08.778Z,0.90
2023-01-12T21:06:36.966Z,1.00
2023-01-12T21:09:05.477Z,1.10
2023-01-12T21:11:33.949Z,1.70
2023-01-12T21:14:03.504Z,1.63
2023-01-12T21:16:33.702Z,1.05
2023-01-12T21:19:03.465Z,0.93
2023-01-12T21:21:32.023Z,0.90
2023-01-12T21:24:00.192Z,1.00
2023-01-12T21:26:28.409Z,0.60
2023-01-12T21:28:56.820Z,0.88
2023-01-12T21:31:26.500Z,0.50
2023-01-12T21:33:54.678Z,0.70
2023-01-12T21:36:23.440Z,0.63
2023-01-12T21:38:52.146Z,0.43
2023-01-12T21:41:21.692Z,0.60
2023-01-12T21:43:50.681Z,0.55
2023-01-12T21:46:19.736Z,0.70
2023-01-12T21:48:49.317Z,0.40
2023-01-12T21:51:18.651Z,0.65
2023-01-12T21:53:46.806Z,0.40
2023-01-12T21:56:15.191Z,0.60
2023-01-12T21:58:43.359Z,0.50
2023-01-12T22:01:13.774Z,0.47
2023-01-12T22:03:42.527Z,0.40
2023-01-12T22:06:14.124Z,0.38
2023-01-12T22:08:43.077Z,0.50
2023-01-12T22:11:13.325Z,0.43
2023-01-12T22:13:41.626Z,0.40
2023-01-12T22:16:12.032Z,0.38
2023-01-12T22:18:41.116Z,0.57
2023-01-12T22:21:12.800Z,0.35
2023-01-12T22:23:41.139Z,0.60
2023-01-12T22:26:11.104Z,0.50
2023-01-12T22:28:41.110Z,0.30
2023-01-12T22:31:11.299Z,0.30
2023-01-12T22:33:39.833Z,0.68
2023-01-12T22:36:08.898Z,0.40
2023-01-12T22:38:38.544Z,0.43
2023-01-12T22:41:08.001Z,0.30
2023-01-12T22:43:40.622Z,0.50
2023-01-12T22:46:15.788Z,0.47
2023-01-12T22:48:44.034Z,0.40
2023-01-12T22:51:12.318Z,0.40
2023-01-12T22:53:41.872Z,0.50
2023-01-12T22:56:11.581Z,0.40
2023-01-12T22:58:40.102Z,0.50
2023-01-12T23:01:10.398Z,0.43
2023-01-12T23:03:39.155Z,0.60
2023-01-12T23:06:11.696Z,0.60
2023-01-12T23:08:41.296Z,0.47
2023-01-12T23:11:12.726Z,0.50
2023-01-12T23:13:41.802Z,0.47
2023-01-12T23:16:12.169Z,0.55
2023-01-12T23:18:41.791Z,0.50
2023-01-12T23:21:14.198Z,0.60
2023-01-12T23:23:45.515Z,0.57
2023-01-12T23:26:15.804Z,0.52
2023-01-12T23:28:47.967Z,0.60
2023-01-12T23:31:19.408Z,0.77
2023-01-12T23:33:47.695Z,0.68
2023-01-12T23:36:17.672Z,1.00
2023-01-12T23:38:47.447Z,0.52
2023-01-12T23:41:18.278Z,0.50
2023-01-12T23:43:47.332Z,0.63
2023-01-12T23:46:17.189Z,0.80
2023-01-12T23:48:45.501Z,0.73
2023-01-12T23:51:13.656Z,0.60
2023-01-12T23:53:41.885Z,0.50
2023-01-12T23:56:13.815Z,0.40
